• Join FlightAware (Why Join?)
  • Login
  • US Flag 
05:38AM EDT


 

Airport Tracker/Info


-or-


 

Live Flight TrackerFlight Track Log ✈ CTL311 ✈ 05-Feb-2014 ✈ KMKE - KJXN

Flight Track Log - Related Links

Times and Time Zones

All times are in EST time to prevent confusion due to time zone crossing. See the CTL311 flight status page for this flight to view local times or setup timezone preferences in your user account.

Time Position Orientation Groundspeed Altitude Reporting Facility
EST Latitude Longitude Course Direction KTS MPH feet Rate Location/Type
04:41PM 42.9667 -87.8833 90° East 104 120 1,300  Level KMKE
04:42PM 42.9667 -87.8500 90° East 111 128 1,800 780 Climbing KMKE
04:43PM 42.9603 -87.8236 108° East 148 170 2,300 660 Climbing Chicago Center
04:44PM 42.9614 -87.7708 88° East 142 163 3,000 720 Climbing Chicago Center
04:45PM 42.9589 -87.7136 93° East 148 170 3,800 780 Climbing Chicago Center
04:46PM 42.9472 -87.6586 106° East 151 174 4,700 720 Climbing Chicago Center
04:47PM 42.9333 -87.6058 110° East 149 171 5,300 600 Climbing Chicago Center
04:48PM 42.9203 -87.5400 105° East 150 173 6,000 480 Climbing Chicago Center
04:49PM 42.9081 -87.4817 106° East 157 181 6,400 480 Climbing Chicago Center
04:50PM 42.8978 -87.4278 105° East 150 173 7,100 300 Climbing Chicago Center
04:51PM 42.8844 -87.3642 106° East 163 188 7,100 -60 Level Chicago Center
04:52PM 42.8750 -87.3008 101° East 170 196 7,000  Descending Chicago Center
04:53PM 42.8603 -87.2392 108° East 171 197 7,100  Climbing Chicago Center
04:54PM 42.8464 -87.1769 107° East 171 197 7,000  Descending Chicago Center
04:55PM 42.8328 -87.1147 107° East 171 197 7,100  Climbing Chicago Center
04:56PM 42.8131 -87.0425 110° East 171 197 7,000  Descending Chicago Center
04:57PM 42.8003 -86.9800 106° East 171 197 7,100  Climbing Chicago Center
04:58PM 42.7867 -86.9189 107° East 169 194 7,100 -60 Level Chicago Center
04:59PM 42.7722 -86.8583 108° East 170 196 7,000 -60 Descending Chicago Center
05:00PM 42.7567 -86.7986 110° East 168 193 7,000  Level Chicago Center
05:01PM 42.7431 -86.7383 107° East 167 192 7,000  Level Chicago Center
05:02PM 42.7356 -86.6636 98° East 167 192 7,000 -60 Level Chicago Center
05:03PM 42.7264 -86.6033 102° East 165 190 6,900 -60 Descending Chicago Center
05:04PM 42.7100 -86.5442 111° Southeast 168 193 6,900  Level Chicago Center
05:05PM 42.6961 -86.4844 108° East 168 193 6,900  Level Chicago Center
05:06PM 42.6839 -86.4219 105° East 170 196 6,900  Level Chicago Center
05:07PM 42.6708 -86.3600 106° East 171 197 6,900 -60 Level Chicago Center
05:08PM 42.6561 -86.2858 105° East 170 196 6,800 -60 Descending Chicago Center
05:09PM 42.6417 -86.2250 108° East 171 197 6,800  Level Chicago Center
05:10PM 42.6292 -86.1633 105° East 170 196 6,800  Level Chicago Center
05:11PM 42.6167 -86.1022 106° East 169 194 6,800  Level Chicago Center
05:13PM 42.6042 -86.0408 105° East 169 194 6,900  Climbing Chicago Center
05:14PM 42.5894 -85.9672 105° East 170 196 6,900  Level Chicago Center
05:15PM 42.5767 -85.9061 106° East 170 196 6,900  Level Chicago Center
05:16PM 42.5636 -85.8458 106° East 169 194 6,900  Level Chicago Center
05:17PM 42.5508 -85.7839 106° East 170 196 6,900 -60 Level Chicago Center
05:18PM 42.5372 -85.7231 107° East 170 196 6,800  Descending Chicago Center
05:19PM 42.5244 -85.6625 106° East 169 194 6,900  Climbing Chicago Center
05:20PM 42.5122 -85.6006 105° East 170 196 6,900  Level Chicago Center
05:21PM 42.4964 -85.5269 106° East 170 196 6,900  Level Chicago Center
05:22PM 42.4831 -85.4650 106° East 172 198 6,900  Level Chicago Center
05:23PM 42.4692 -85.4028 107° East 172 198 6,900  Level Chicago Center
05:24PM 42.4556 -85.3408 107° East 172 198 6,900  Level Chicago Center
05:25PM 42.4431 -85.2783 105° East 172 198 6,900 -60 Level Chicago Center
05:26PM 42.4292 -85.2161 107° East 174 200 6,800 -240 Descending Chicago Center
05:27PM 42.4128 -85.1417 107° East 172 198 6,500 -540 Descending Chicago Center
05:28PM 42.3961 -85.0742 108° East 184 212 5,700 -840 Descending Chicago Center
05:29PM 42.3806 -85.0056 107° East 190 219 4,900 -720 Descending Chicago Center
05:30PM 42.3639 -84.9408 109° East 185 213 4,300 -660 Descending Chicago Center
05:31PM 42.3481 -84.8772 109° East 181 208 3,600 -660 Descending Chicago Center
05:32PM 42.3281 -84.8067 111° Southeast 178 205 3,000 -360 Descending Chicago Center
05:33PM 42.3142 -84.7467 107° East 175 201 2,900 -180 Descending Chicago Center
05:34PM 42.3006 -84.6858 107° East 172 198 2,700 -240 Descending Chicago Center
05:35PM 42.2861 -84.6267 108° East 169 194 2,500 -240 Descending Chicago Center
05:36PM 42.2706 -84.5625 108° East 168 193 2,300 -240 Descending Chicago Center
05:38PM 42.2646 -84.4792 124° Southeast  Level FlightAware Approximate
05:45PM 42.2604 -84.4604 124° Southeast  Level Estimated
05:46PM 42.2604 -84.4604 124° Southeast  Level Estimated
05:47PM 42.2604 -84.4604 124° Southeast  Level Estimated